Csorna, Hungary
Current Conditions -  °F | °C
As of 6:15 PM on Saturday 20 Dec 2014 (Local Time) from LHPR Reporting Station
Broken Clouds Broken Clouds  
Wind Chill: 42°   Ceiling: 8300
Heat Index: 45°   Visibility: 6mi
Dew Point: 36°   Wind: 5mph
Humidity: 71%   Direction: 210°SSW
Pressure: 30.09"   Gusts: NA
Location:  47.61°N, 17.25°E
Report Text: LHPR 201615Z 21004KT 9999 FEW043 BKN083 BKN200 07/02 Q1019
Loading
Personal Weather Stations






























Interactive Weather Map New forecast layout! Learn more

10-Day Weather Forecast

Advertisements
Track Severe Weather on mobile